sensor_id;sensor_type;location;lat;lon;timestamp;pressure;altitude;pressure_sealevel;temperature;humidity
74913;BME280;63878;55.624;37.304;2024-01-27T00:02:22;98880.41;;;-5.38;70.48
74913;BME280;63878;55.624;37.304;2024-01-27T00:12:22;98886.59;;;-5.45;71.22
74913;BME280;63878;55.624;37.304;2024-01-27T00:22:22;98902.25;;;-5.56;72.31
74913;BME280;63878;55.624;37.304;2024-01-27T00:32:23;98898.75;;;-5.53;71.86
74913;BME280;63878;55.624;37.304;2024-01-27T00:42:23;98892.16;;;-5.59;72.04
74913;BME280;63878;55.624;37.304;2024-01-27T00:52:24;98898.28;;;-5.63;71.44
74913;BME280;63878;55.624;37.304;2024-01-27T01:02:24;98894.03;;;-5.64;72.64
74913;BME280;63878;55.624;37.304;2024-01-27T01:12:25;98913.16;;;-5.52;70.78
74913;BME280;63878;55.624;37.304;2024-01-27T01:22:25;98906.75;;;-5.39;69.58
74913;BME280;63878;55.624;37.304;2024-01-27T01:32:27;98900.91;;;-5.66;71.06
74913;BME280;63878;55.624;37.304;2024-01-27T01:42:28;98898.56;;;-5.72;70.75
74913;BME280;63878;55.624;37.304;2024-01-27T01:52:28;98911.91;;;-5.65;70.09
74913;BME280;63878;55.624;37.304;2024-01-27T02:02:29;98908.81;;;-5.49;69.54
74913;BME280;63878;55.624;37.304;2024-01-27T02:12:29;98917.28;;;-5.73;69.90
74913;BME280;63878;55.624;37.304;2024-01-27T02:22:30;98920.69;;;-5.72;69.95
74913;BME280;63878;55.624;37.304;2024-01-27T02:32:30;98920.66;;;-5.48;69.32
74913;BME280;63878;55.624;37.304;2024-01-27T02:42:31;98933.50;;;-5.51;68.57
74913;BME280;63878;55.624;37.304;2024-01-27T02:52:32;98954.19;;;-5.58;68.64
74913;BME280;63878;55.624;37.304;2024-01-27T03:02:33;98949.44;;;-5.69;69.11
74913;BME280;63878;55.624;37.304;2024-01-27T03:12:33;98950.47;;;-5.74;69.33
74913;BME280;63878;55.624;37.304;2024-01-27T03:22:34;98938.81;;;-6.07;70.78
74913;BME280;63878;55.624;37.304;2024-01-27T03:32:34;98952.47;;;-6.08;70.40
74913;BME280;63878;55.624;37.304;2024-01-27T03:42:35;98963.88;;;-5.94;70.21
74913;BME280;63878;55.624;37.304;2024-01-27T03:52:35;98982.22;;;-6.10;70.89
74913;BME280;63878;55.624;37.304;2024-01-27T04:02:36;98992.03;;;-5.98;69.53
74913;BME280;63878;55.624;37.304;2024-01-27T04:12:36;99005.16;;;-5.84;69.29
74913;BME280;63878;55.624;37.304;2024-01-27T04:22:36;99018.44;;;-6.01;69.25
74913;BME280;63878;55.624;37.304;2024-01-27T04:32:37;99038.22;;;-6.09;69.66
74913;BME280;63878;55.624;37.304;2024-01-27T04:42:38;99045.31;;;-6.18;70.11
74913;BME280;63878;55.624;37.304;2024-01-27T04:52:39;99038.00;;;-6.29;70.23
74913;BME280;63878;55.624;37.304;2024-01-27T05:02:41;99041.88;;;-6.17;70.69
74913;BME280;63878;55.624;37.304;2024-01-27T05:12:41;99031.66;;;-5.90;68.87
74913;BME280;63878;55.624;37.304;2024-01-27T05:22:42;99057.97;;;-5.89;68.26
74913;BME280;63878;55.624;37.304;2024-01-27T05:32:43;99071.44;;;-5.86;67.97
74913;BME280;63878;55.624;37.304;2024-01-27T05:42:43;99075.69;;;-6.12;68.19
74913;BME280;63878;55.624;37.304;2024-01-27T05:52:44;99091.09;;;-5.89;67.87
74913;BME280;63878;55.624;37.304;2024-01-27T06:02:44;99107.03;;;-6.10;68.22
74913;BME280;63878;55.624;37.304;2024-01-27T06:12:45;99112.50;;;-5.95;67.93
74913;BME280;63878;55.624;37.304;2024-01-27T06:22:46;99113.28;;;-5.13;65.22
74913;BME280;63878;55.624;37.304;2024-01-27T06:32:46;99129.31;;;-5.10;63.61
74913;BME280;63878;55.624;37.304;2024-01-27T06:42:47;99140.38;;;-5.35;64.82
74913;BME280;63878;55.624;37.304;2024-01-27T06:52:48;99145.47;;;-4.83;63.99
74913;BME280;63878;55.624;37.304;2024-01-27T07:02:48;99154.38;;;-4.95;62.64
74913;BME280;63878;55.624;37.304;2024-01-27T07:12:49;99155.13;;;-4.93;62.43
74913;BME280;63878;55.624;37.304;2024-01-27T07:22:50;99160.44;;;-5.25;63.30
74913;BME280;63878;55.624;37.304;2024-01-27T07:32:50;99177.44;;;-5.51;65.50
74913;BME280;63878;55.624;37.304;2024-01-27T07:42:51;99188.09;;;-5.39;64.68
74913;BME280;63878;55.624;37.304;2024-01-27T07:52:51;99198.59;;;-5.48;64.64
74913;BME280;63878;55.624;37.304;2024-01-27T08:02:52;99202.22;;;-5.29;63.98
74913;BME280;63878;55.624;37.304;2024-01-27T08:12:52;99219.13;;;-4.99;64.09
74913;BME280;63878;55.624;37.304;2024-01-27T08:22:53;99220.69;;;-5.21;64.74
74913;BME280;63878;55.624;37.304;2024-01-27T08:32:54;99241.75;;;-5.14;64.82
74913;BME280;63878;55.624;37.304;2024-01-27T08:42:54;99251.22;;;-4.92;63.90
74913;BME280;63878;55.624;37.304;2024-01-27T08:52:55;99248.81;;;-4.44;64.36
74913;BME280;63878;55.624;37.304;2024-01-27T09:02:55;99252.09;;;-4.16;61.81
74913;BME280;63878;55.624;37.304;2024-01-27T09:12:56;99246.44;;;-4.26;62.08
74913;BME280;63878;55.624;37.304;2024-01-27T09:22:57;99258.50;;;-4.54;62.13
74913;BME280;63878;55.624;37.304;2024-01-27T09:32:57;99254.16;;;-4.52;61.19
74913;BME280;63878;55.624;37.304;2024-01-27T09:42:59;99261.81;;;-4.52;61.87
74913;BME280;63878;55.624;37.304;2024-01-27T09:53:00;99262.97;;;-4.60;62.40
74913;BME280;63878;55.624;37.304;2024-01-27T10:03:01;99272.25;;;-3.84;61.81
74913;BME280;63878;55.624;37.304;2024-01-27T10:13:03;99275.03;;;-3.67;60.20
74913;BME280;63878;55.624;37.304;2024-01-27T10:23:14;99283.28;;;-4.31;62.51
74913;BME280;63878;55.624;37.304;2024-01-27T10:33:14;99292.03;;;-4.14;61.82
74913;BME280;63878;55.624;37.304;2024-01-27T10:43:16;99316.38;;;-4.04;60.62
74913;BME280;63878;55.624;37.304;2024-01-27T10:53:24;99324.66;;;-3.72;63.09
74913;BME280;63878;55.624;37.304;2024-01-27T11:03:26;99332.88;;;-3.63;64.12
74913;BME280;63878;55.624;37.304;2024-01-27T11:13:32;99341.47;;;-3.19;64.80
74913;BME280;63878;55.624;37.304;2024-01-27T11:23:34;99363.06;;;-3.74;60.89
74913;BME280;63878;55.624;37.304;2024-01-27T11:33:46;99367.72;;;-3.60;64.04
74913;BME280;63878;55.624;37.304;2024-01-27T11:43:56;99373.75;;;-2.92;63.90
74913;BME280;63878;55.624;37.304;2024-01-27T11:53:57;99376.25;;;-2.91;64.03
74913;BME280;63878;55.624;37.304;2024-01-27T12:03:57;99400.34;;;-3.19;64.10
74913;BME280;63878;55.624;37.304;2024-01-27T12:13:58;99405.91;;;-2.85;63.61
74913;BME280;63878;55.624;37.304;2024-01-27T12:23:59;99420.53;;;-3.59;62.67
74913;BME280;63878;55.624;37.304;2024-01-27T12:34:00;99434.03;;;-3.81;61.28
74913;BME280;63878;55.624;37.304;2024-01-27T12:44:01;99470.94;;;-4.15;61.52
74913;BME280;63878;55.624;37.304;2024-01-27T12:54:02;99466.59;;;-4.39;62.00
74913;BME280;63878;55.624;37.304;2024-01-27T13:04:03;99483.03;;;-4.20;63.61
74913;BME280;63878;55.624;37.304;2024-01-27T13:14:04;99489.16;;;-3.98;63.43
74913;BME280;63878;55.624;37.304;2024-01-27T13:24:04;99517.16;;;-4.79;67.00
74913;BME280;63878;55.624;37.304;2024-01-27T13:34:05;99531.13;;;-4.05;64.51
74913;BME280;63878;55.624;37.304;2024-01-27T13:44:06;99530.13;;;-4.01;64.42
74913;BME280;63878;55.624;37.304;2024-01-27T13:54:06;99546.97;;;-5.12;66.70
74913;BME280;63878;55.624;37.304;2024-01-27T14:04:07;99552.66;;;-4.12;66.72
74913;BME280;63878;55.624;37.304;2024-01-27T14:14:07;99557.44;;;-4.02;66.21
74913;BME280;63878;55.624;37.304;2024-01-27T14:24:08;99560.16;;;-3.80;66.84
74913;BME280;63878;55.624;37.304;2024-01-27T14:34:09;99566.63;;;-3.68;64.22
74913;BME280;63878;55.624;37.304;2024-01-27T14:44:09;99583.47;;;-4.18;64.96
74913;BME280;63878;55.624;37.304;2024-01-27T14:54:10;99588.97;;;-4.30;64.57
74913;BME280;63878;55.624;37.304;2024-01-27T15:04:10;99601.34;;;-4.18;62.26
74913;BME280;63878;55.624;37.304;2024-01-27T15:14:11;99608.78;;;-4.38;63.53
74913;BME280;63878;55.624;37.304;2024-01-27T15:24:12;99612.44;;;-3.88;64.45
74913;BME280;63878;55.624;37.304;2024-01-27T15:34:13;99613.66;;;-3.74;64.16
74913;BME280;63878;55.624;37.304;2024-01-27T15:44:13;99611.59;;;-3.61;65.01
74913;BME280;63878;55.624;37.304;2024-01-27T15:54:14;99613.22;;;-4.45;61.77
74913;BME280;63878;55.624;37.304;2024-01-27T16:04:14;99629.28;;;-4.72;63.46
74913;BME280;63878;55.624;37.304;2024-01-27T16:14:15;99639.16;;;-4.92;63.45
74913;BME280;63878;55.624;37.304;2024-01-27T16:24:15;99664.00;;;-4.34;64.68
74913;BME280;63878;55.624;37.304;2024-01-27T16:34:16;99666.13;;;-4.19;61.81
74913;BME280;63878;55.624;37.304;2024-01-27T16:44:16;99686.66;;;-3.92;63.83
74913;BME280;63878;55.624;37.304;2024-01-27T16:54:17;99694.19;;;-4.18;63.14
74913;BME280;63878;55.624;37.304;2024-01-27T17:04:17;99708.91;;;-3.95;61.47
74913;BME280;63878;55.624;37.304;2024-01-27T17:14:18;99724.16;;;-4.55;62.94
74913;BME280;63878;55.624;37.304;2024-01-27T17:24:18;99734.41;;;-4.24;63.10
74913;BME280;63878;55.624;37.304;2024-01-27T17:34:19;99734.31;;;-4.20;63.25
74913;BME280;63878;55.624;37.304;2024-01-27T17:44:20;99750.97;;;-4.72;63.48
74913;BME280;63878;55.624;37.304;2024-01-27T17:54:20;99755.28;;;-4.74;64.48
74913;BME280;63878;55.624;37.304;2024-01-27T18:04:21;99759.88;;;-5.63;67.94
74913;BME280;63878;55.624;37.304;2024-01-27T18:14:21;99766.69;;;-5.63;66.75
74913;BME280;63878;55.624;37.304;2024-01-27T18:24:22;99780.16;;;-5.58;67.47
74913;BME280;63878;55.624;37.304;2024-01-27T18:34:22;99786.56;;;-5.01;64.56
74913;BME280;63878;55.624;37.304;2024-01-27T18:44:23;99795.31;;;-4.76;64.08
74913;BME280;63878;55.624;37.304;2024-01-27T18:54:23;99811.66;;;-4.82;64.02
74913;BME280;63878;55.624;37.304;2024-01-27T19:04:24;99821.84;;;-5.20;64.07
74913;BME280;63878;55.624;37.304;2024-01-27T19:14:25;99831.09;;;-5.14;64.32
74913;BME280;63878;55.624;37.304;2024-01-27T19:24:26;99838.56;;;-5.89;65.30
74913;BME280;63878;55.624;37.304;2024-01-27T19:34:27;99841.38;;;-5.19;64.58
74913;BME280;63878;55.624;37.304;2024-01-27T19:44:27;99855.72;;;-5.13;63.85
74913;BME280;63878;55.624;37.304;2024-01-27T19:54:28;99861.72;;;-5.14;63.90
74913;BME280;63878;55.624;37.304;2024-01-27T20:04:28;99858.84;;;-5.40;64.78
74913;BME280;63878;55.624;37.304;2024-01-27T20:14:29;99871.13;;;-4.78;62.69
74913;BME280;63878;55.624;37.304;2024-01-27T20:24:30;99878.88;;;-4.46;61.40
74913;BME280;63878;55.624;37.304;2024-01-27T20:34:31;99887.84;;;-4.65;61.30
74913;BME280;63878;55.624;37.304;2024-01-27T20:44:32;99903.50;;;-5.64;64.90
74913;BME280;63878;55.624;37.304;2024-01-27T20:54:34;99904.84;;;-5.02;63.79
74913;BME280;63878;55.624;37.304;2024-01-27T21:04:35;99915.63;;;-4.90;62.68
74913;BME280;63878;55.624;37.304;2024-01-27T21:14:35;99922.66;;;-5.01;62.95
74913;BME280;63878;55.624;37.304;2024-01-27T21:24:36;99929.72;;;-5.13;63.70
74913;BME280;63878;55.624;37.304;2024-01-27T21:34:37;99947.50;;;-5.53;66.20
74913;BME280;63878;55.624;37.304;2024-01-27T21:44:37;99972.19;;;-6.05;66.97
74913;BME280;63878;55.624;37.304;2024-01-27T21:54:39;99968.22;;;-6.24;67.58
74913;BME280;63878;55.624;37.304;2024-01-27T22:04:40;99976.91;;;-6.35;68.74
74913;BME280;63878;55.624;37.304;2024-01-27T22:14:40;99979.47;;;-6.38;69.31
74913;BME280;63878;55.624;37.304;2024-01-27T22:24:42;99989.75;;;-6.43;69.55
74913;BME280;63878;55.624;37.304;2024-01-27T22:34:45;99991.56;;;-6.52;69.78
74913;BME280;63878;55.624;37.304;2024-01-27T22:44:46;99994.88;;;-6.46;69.84
74913;BME280;63878;55.624;37.304;2024-01-27T22:54:47;100000.22;;;-6.64;70.82
74913;BME280;63878;55.624;37.304;2024-01-27T23:04:48;100001.88;;;-6.63;71.03
74913;BME280;63878;55.624;37.304;2024-01-27T23:14:48;100007.03;;;-6.67;71.03
74913;BME280;63878;55.624;37.304;2024-01-27T23:24:49;100007.06;;;-6.70;71.19
74913;BME280;63878;55.624;37.304;2024-01-27T23:34:50;100021.50;;;-6.71;71.32
74913;BME280;63878;55.624;37.304;2024-01-27T23:44:51;100038.53;;;-6.77;71.41
74913;BME280;63878;55.624;37.304;2024-01-27T23:54:52;100039.38;;;-6.75;71.51
